METAR Data
IDs: Format: Raw Decoded Include TAF

Data at: 1457 UTC 21 Apr 2021

METAR for:KMIW (Marshalltown Muni, IA, US)
Text:KMIW 211453Z AUTO 01012KT 10SM SCT050 BKN060 03/M09 A3018 RMK AO2 SLP231 T00281089 51010
Temperature: 2.8°C ( 37°F)
Dewpoint: -8.9°C ( 16°F) [RH = 42%]
Pressure (altimeter):30.18 inches Hg (1022.1 mb) [Sea level pressure: 1023.1 mb]
Winds:from the N (10 degrees) at 14 MPH (12 knots; 6.2 m/s)
Visibility:10 or more sm (16+ km)
Ceiling:6000 feet AGL
Clouds: scattered clouds at 5000 feet AGL, broken clouds at 6000 feet AGL
QC Flag:automated observation with no human augmentation